• Join FlightAware (Why Join?)
  • Login
  • US Flag 
09:09AM EDT


 

Airport Tracker/Info


-or-


 

Live Flight TrackerFlight Track Log ✈ EJA922 ✈ 22-Jun-2013 ✈ KMSY - KPBI

Flight Track Log - Related Links

Times and Time Zones

All times are in EDT time to prevent confusion due to time zone crossing. See the EJA922 flight status page for this flight to view local times or setup timezone preferences in your user account.

Time Position Orientation Groundspeed Altitude Reporting Facility
EDT Latitude Longitude Course Direction KTS MPH feet Rate Location/Type
09:48AM 29.9989 -90.2481 12° North 161 185 400  Level Houston Center
09:49AM 30.0683 -90.2308 12° North 252 290 3,500 2,580 Climbing Houston Center
09:50AM 30.0775 -90.1478 83° East 268 308 6,200 3,000 Climbing Houston Center
09:51AM 30.1153 -90.0800 57° Northeast 277 319 9,700 3,120 Climbing Houston Center
09:52AM 30.1778 -90.0197 40° Northeast 295 339 12,600 2,640 Climbing Houston Center
09:53AM 30.2358 -89.9378 51° Northeast 325 374 15,200 2,400 Climbing Houston Center
09:54AM 30.2961 -89.8506 51° Northeast 344 396 17,600 2,460 Climbing Houston Center
09:55AM 30.3200 -89.7242 78° East 365 420 20,300 2,400 Climbing Houston Center
09:56AM 30.3269 -89.6056 86° East 368 423 22,600 1,980 Climbing Houston Center
09:57AM 30.3344 -89.4872 86° East 370 426 24,400 1,500 Climbing Houston Center
09:58AM 30.3428 -89.3589 86° East 392 451 25,700 1,260 Climbing Houston Center
09:59AM 30.3508 -89.2208 86° East 421 484 27,000 1,260 Climbing Houston Center
10:00AM 30.3592 -89.0778 86° East 440 506 28,300 1,380 Climbing Houston Center
10:01AM 30.3683 -88.9025 86° East 455 524 29,900 1,380 Climbing Houston Center
10:02AM 30.3758 -88.7522 87° East 468 539 31,200 1,200 Climbing Houston Center
10:03AM 30.3853 -88.5994 86° East 477 549 32,500 1,200 Climbing Houston Center
10:04AM 30.3939 -88.4458 86° East 482 555 33,700 1,200 Climbing Houston Center
10:05AM 30.4022 -88.2894 86° East 490 564 35,000 1,260 Climbing Houston Center
10:06AM 30.4119 -88.1286 86° East 502 578 36,300 1,320 Climbing Houston Center
10:07AM 30.4192 -87.9347 87° East 507 583 37,800 1,320 Climbing Houston Center
10:08AM 30.4006 -87.7703 97° East 519 597 39,100 1,260 Climbing Houston Center
10:09AM 30.3767 -87.6081 100° East 517 595 40,400 900 Climbing Houston Center
10:10AM 30.3522 -87.4461 100° East 514 592 41,000 240 Climbing Houston Center
10:12AM 30.3275 -87.2847 100° East 513 590 41,000  Level Houston Center
10:13AM 30.3033 -87.1250 100° East 507 583 41,000  Level Houston Center
10:14AM 30.2744 -86.9444 100° East 502 578 41,000  Level Houston Center
10:15AM 30.2492 -86.7892 101° East 496 571 41,000  Level Houston Center
10:16AM 30.2247 -86.6314 100° East 498 573 41,000  Level Houston Center
10:17AM 30.1997 -86.4756 100° East 493 567 41,000  Level Houston Center
10:18AM 30.1594 -86.2558 102° East 496 571 41,000  Level Jacksonville Center
10:19AM 30.0858 -86.1236 123° Southeast 476 548 41,000  Level Jacksonville Center
10:20AM 29.9989 -86.0031 130° Southeast 483 556 41,000  Level Jacksonville Center
10:21AM 29.9142 -85.8783 128° Southeast 490 564 41,000  Level Jacksonville Center
10:22AM 29.8294 -85.7583 129° Southeast 490 564 41,000  Level Jacksonville Center
10:23AM 29.7442 -85.6411 130° Southeast 479 551 41,000  Level Jacksonville Center
10:24AM 29.6633 -85.5239 128° Southeast 479 551 41,000  Level Jacksonville Center
10:25AM 29.5822 -85.4047 128° Southeast 479 551 41,000  Level Jacksonville Center
10:26AM 29.5008 -85.2858 128° Southeast 479 551 41,000  Level Jacksonville Center
10:27AM 29.4153 -85.1669 130° Southeast 479 551 41,000  Level Jacksonville Center
10:28AM 29.3278 -85.0458 130° Southeast 479 551 41,000  Level Jacksonville Center
10:29AM 29.2400 -84.9200 129° Southeast 484 557 41,000  Level Jacksonville Center
10:30AM 29.1522 -84.7994 130° Southeast 490 564 41,000  Level Jacksonville Center
10:31AM 29.0661 -84.6767 129° Southeast 496 571 41,000  Level Jacksonville Center
10:32AM 28.9781 -84.5589 131° Southeast 496 571 41,000  Level Jacksonville Center
10:33AM 28.8897 -84.4386 130° Southeast 496 571 41,000  Level Jacksonville Center
10:34AM 28.8056 -84.3189 129° Southeast 491 565 41,000 60 Level Jacksonville Center
10:36AM 28.6183 -84.0572 129° Southeast 482 555 41,200 480 Climbing Miami Center
10:37AM 28.5303 -83.9406 131° Southeast 476 548 42,700 600 Climbing Miami Center
10:39AM 28.4233 -83.8134 134° Southeast  Level FlightAware Approximate
10:39AM 28.4458 -83.6639 134° Southeast 455 524 43,000  Level Miami Center
10:40AM 28.4731 -83.5264 77° East 446 513 43,000 -60 Level Miami Center
10:41AM 28.4144 -83.3981 117° Southeast 435 501 42,900  Descending Miami Center
10:42AM 28.3231 -83.2983 136° Southeast 429 494 43,000  Climbing Miami Center
10:43AM 28.2233 -83.1961 138° Southeast 435 501 43,000  Level Miami Center
10:44AM 28.1317 -83.0992 137° Southeast 440 506 43,000  Level Miami Center
10:45AM 28.0378 -83.0000 137° Southeast 453 521 43,000 -300 Level Miami Center
10:46AM 27.9600 -82.9183 137° Southeast 467 537 42,500 -840 Descending Miami Center
10:47AM 27.8522 -82.8000 136° Southeast 481 554 41,400 -1,140 Descending Miami Center
10:48AM 27.7403 -82.6839 137° Southeast 498 573 40,300 -1,020 Descending Miami Center
10:49AM 27.6461 -82.5853 137° Southeast 503 579 39,400 -960 Descending Miami Center
10:50AM 27.5419 -82.4772 137° Southeast 503 579 38,400 -1,200 Descending Miami Center
10:51AM 27.4256 -82.3569 137° Southeast 509 586 37,100 -1,200 Descending Miami Center
10:52AM 27.3231 -82.2492 137° Southeast 507 583 36,100 -1,080 Descending Miami Center
10:53AM 27.2208 -82.1394 136° Southeast 513 590 35,000 -1,200 Descending Miami Center
10:54AM 27.1647 -82.0133 117° Southeast 492 566 33,800 -1,560 Descending Miami Center
10:55AM 27.1222 -81.8550 107° East 485 558 31,900 -2,340 Descending Miami Center
10:56AM 27.0833 -81.7136 107° East 480 552 29,200 -2,760 Descending Miami Center
10:57AM 27.0439 -81.5767 108° East 464 534 26,400 -2,820 Descending Miami Center
10:58AM 27.0103 -81.4611 108° East 452 520 23,600 -2,700 Descending Miami Center
10:59AM 26.9744 -81.3361 108° East 432 497 21,000 -2,640 Descending Miami Center
11:00AM 26.9400 -81.2278 110° East 402 463 18,400 -2,880 Descending Miami Center
11:01AM 26.9103 -81.1078 105° East 364 419 15,300 -3,300 Descending Miami Center
11:02AM 26.8839 -81.0114 107° East 333 383 11,800 -2,700 Descending Miami Center
11:03AM 26.8611 -80.9314 108° East 312 359 10,000 -900 Descending Miami Center
11:04AM 26.8325 -80.8350 108° East 295 339 10,000  Level Miami Center
11:05AM 26.8033 -80.7550 112° Southeast 285 328 10,000 -540 Level Miami Center
11:06AM 26.7736 -80.6864 116° Southeast 273 314 9,000 -1,740 Descending Miami Center
11:07AM 26.7339 -80.6086 120° Southeast 263 303 6,600 -1,920 Descending Miami Center
11:08AM 26.7172 -80.5336 104° East 263 303 5,200 -1,560 Descending Miami Center
11:09AM 26.6983 -80.4517 104° East 258 297 3,500 -1,560 Descending Miami Center
11:10AM 26.6936 -80.3839 94° East 246 283 2,100 -1,440 Descending Miami Center
11:12AM 26.6018 -80.2369 119° Southeast  Level FlightAware Approximate
11:19AM 26.6667 -80.0833 50° Northeast  Level FlightAware Approximate
11:20AM 26.6832 -80.0956 50° Northeast  Level Estimated
11:21AM 26.6832 -80.0956 50° Northeast  Level Estimated
11:22AM 26.6832 -80.0956 50° Northeast  Level Estimated
11:23AM 26.6832 -80.0956 50° Northeast  Level Estimated
11:24AM 26.6832 -80.0956 50° Northeast  Level Estimated